Time;durP1;ratioP1;P1;durP2;ratioP2;P2;SDS_P1;SDS_P2;PMS_P1;PMS_P2;Temp;Humidity;BMP_temperature;BMP_pressure;BME280_temperature;BME280_humidity;BME280_pressure;Samples;Min_cycle;Max_cycle;Signal;HPM_P1;HPM_P2
2021/12/02 00:00:49;;;;;;;11.20;2.00;;;;;;;5.69;100.00;99886.22;5116447;28;20056;-53
2021/12/02 00:03:18;;;;;;;14.68;2.10;;;;;;;5.71;100.00;99891.41;5116870;28;20055;-51
2021/12/02 00:05:47;;;;;;;11.02;1.85;;;;;;;5.71;100.00;99896.69;5116261;28;20058;-51
2021/12/02 00:08:15;;;;;;;18.98;2.92;;;;;;;5.70;97.65;99906.38;5115525;28;20055;-51
2021/12/02 00:10:45;;;;;;;6.13;1.58;;;;;;;5.72;96.23;99908.94;5115693;28;20056;-52
2021/12/02 00:13:14;;;;;;;5.15;1.15;;;;;;;5.72;95.29;99922.94;5116524;28;20071;-52
2021/12/02 00:15:48;;;;;;;14.90;2.50;;;;;;;5.78;93.97;99921.75;5116104;28;20066;-51
2021/12/02 00:21:19;;;;;;;14.27;2.15;;;;;;;5.89;93.55;99924.69;5052889;28;20063;-51
2021/12/02 00:23:52;;;;;;;16.50;1.95;;;;;;;5.87;93.93;99926.56;5103908;28;20056;-52
2021/12/02 00:26:23;;;;;;;11.30;1.85;;;;;;;5.91;91.32;99925.44;5115405;28;20055;-51
2021/12/02 00:28:53;;;;;;;9.30;1.30;;;;;;;5.84;92.64;99929.34;5115676;28;20056;-53
2021/12/02 00:31:23;;;;;;;9.07;1.73;;;;;;;5.81;92.37;99945.28;5116191;28;20057;-52
2021/12/02 00:33:53;;;;;;;11.55;1.85;;;;;;;5.91;90.87;99930.72;5115851;28;20062;-51
2021/12/02 00:36:25;;;;;;;15.38;2.42;;;;;;;5.92;90.36;99942.97;5115652;28;20063;-52
2021/12/02 00:38:54;;;;;;;14.90;2.47;;;;;;;5.79;90.85;99957.69;5116563;28;20063;-53
2021/12/02 00:41:27;;;;;;;9.75;1.48;;;;;;;5.67;92.07;99956.53;5116254;28;20051;-52
2021/12/02 00:43:57;;;;;;;17.38;1.65;;;;;;;5.54;92.57;99955.44;5115653;28;20071;-52
2021/12/02 00:46:32;;;;;;;8.32;1.60;;;;;;;5.69;91.89;99956.44;5115217;28;20059;-53
2021/12/02 00:49:02;;;;;;;12.30;1.60;;;;;;;5.75;90.64;99980.66;5115044;28;20062;-51
2021/12/02 00:51:31;;;;;;;12.07;1.98;;;;;;;5.79;90.53;99976.09;5116336;28;20058;-51
2021/12/02 00:54:03;;;;;;;7.47;1.75;;;;;;;5.76;89.33;99979.72;5116360;28;20125;-52
2021/12/02 00:56:33;;;;;;;19.27;4.55;;;;;;;5.82;88.32;99983.84;5115019;28;20525;-51
2021/12/02 00:59:01;;;;;;;14.85;1.70;;;;;;;5.99;87.51;99990.06;5115674;28;20051;-52
2021/12/02 01:01:34;;;;;;;7.95;1.85;;;;;;;6.01;87.06;99990.84;5115001;28;20070;-51
2021/12/02 01:04:06;;;;;;;9.63;1.30;;;;;;;6.07;86.72;100003.66;5114953;28;20051;-52
2021/12/02 01:06:35;;;;;;;8.05;1.10;;;;;;;6.10;84.63;99992.97;5114670;28;20073;-54
2021/12/02 01:09:04;;;;;;;7.25;1.40;;;;;;;6.08;82.21;99994.84;5115232;28;20058;-51
2021/12/02 01:11:34;;;;;;;13.63;1.58;;;;;;;5.84;82.63;100003.03;5115166;28;20078;-52
2021/12/02 01:14:03;;;;;;;6.35;1.27;;;;;;;5.73;81.38;100005.34;5115121;28;20498;-52
2021/12/02 01:16:32;;;;;;;10.00;1.20;;;;;;;5.69;82.41;100009.06;5115124;28;20055;-53
2021/12/02 01:19:01;;;;;;;5.30;1.20;;;;;;;5.76;81.93;100011.31;5114727;28;20165;-52
2021/12/02 01:21:30;;;;;;;11.93;1.40;;;;;;;5.81;81.52;99992.66;5113828;28;20525;-51
2021/12/02 01:24:00;;;;;;;4.95;1.00;;;;;;;5.85;81.38;100019.69;5115656;28;20091;-52
2021/12/02 01:26:30;;;;;;;5.95;1.23;;;;;;;5.87;81.92;100023.09;5115335;28;20052;-53
2021/12/02 01:29:01;;;;;;;8.38;1.50;;;;;;;5.71;81.44;100004.59;5114658;28;20067;-52
2021/12/02 01:31:31;;;;;;;5.45;1.02;;;;;;;5.71;80.58;100031.75;5114408;28;20052;-51
2021/12/02 01:34:01;;;;;;;11.43;1.30;;;;;;;5.69;79.91;100022.25;5114368;28;20130;-52
2021/12/02 01:36:34;;;;;;;10.30;1.40;;;;;;;5.52;79.41;100039.69;5115786;28;20406;-53
2021/12/02 01:39:04;;;;;;;9.90;1.52;;;;;;;5.40;80.29;100042.94;5114593;28;20063;-52
2021/12/02 01:41:37;;;;;;;5.38;1.80;;;;;;;5.29;80.78;100032.91;5114208;28;20054;-53
2021/12/02 01:44:12;;;;;;;9.20;1.90;;;;;;;5.25;81.22;100038.41;5115387;28;20051;-51
2021/12/02 01:46:41;;;;;;;5.20;1.50;;;;;;;5.27;80.92;100049.69;5114229;28;20058;-53
2021/12/02 01:49:12;;;;;;;9.98;1.65;;;;;;;5.25;80.70;100041.03;5114792;28;20495;-51
2021/12/02 01:51:42;;;;;;;4.22;1.27;;;;;;;5.16;80.93;100042.28;5114535;28;20495;-51
2021/12/02 01:54:12;;;;;;;9.77;1.55;;;;;;;5.17;82.67;100047.50;5114171;28;20135;-51
2021/12/02 01:56:46;;;;;;;7.53;1.20;;;;;;;5.09;83.07;100062.75;5114302;28;20051;-51
2021/12/02 01:59:18;;;;;;;5.40;1.15;;;;;;;5.01;83.75;100064.94;5115514;28;20165;-52
2021/12/02 02:01:48;;;;;;;9.90;1.40;;;;;;;5.11;82.98;100073.22;5114979;28;20074;-53
2021/12/02 02:04:17;;;;;;;13.15;1.40;;;;;;;5.14;82.00;100070.44;5115203;28;20126;-52
2021/12/02 02:06:56;;;;;;;8.40;2.35;;;;;;;5.11;82.58;100070.59;5114546;28;20059;-53
2021/12/02 02:09:26;;;;;;;11.30;1.40;;;;;;;5.09;83.27;100073.28;5114298;28;20062;-51
2021/12/02 02:11:55;;;;;;;9.80;2.05;;;;;;;5.08;83.95;100084.75;5115413;28;20056;-53
2021/12/02 02:14:27;;;;;;;2.92;1.17;;;;;;;5.13;82.84;100095.06;5115041;28;20056;-52
2021/12/02 02:16:57;;;;;;;8.13;1.35;;;;;;;5.07;83.20;100101.44;5115077;28;20048;-53
2021/12/02 02:19:29;;;;;;;7.90;1.17;;;;;;;5.08;82.76;100105.78;5114478;28;20533;-51
2021/12/02 02:21:59;;;;;;;6.55;1.35;;;;;;;5.07;81.45;100111.94;5113932;28;20507;-51
2021/12/02 02:24:29;;;;;;;3.60;1.10;;;;;;;5.13;82.11;100110.84;5114190;28;20067;-52
2021/12/02 02:26:57;;;;;;;5.03;1.50;;;;;;;5.19;82.22;100118.41;5114411;28;20130;-53
2021/12/02 02:29:26;;;;;;;7.80;1.27;;;;;;;5.20;82.43;100120.97;5114060;28;20537;-51
2021/12/02 02:31:54;;;;;;;10.35;1.85;;;;;;;5.21;82.45;100135.84;5115048;28;20066;-53
2021/12/02 02:34:23;;;;;;;13.50;2.92;;;;;;;5.10;83.15;100130.22;5118727;28;20135;-52
2021/12/02 02:36:54;;;;;;;9.30;1.42;;;;;;;4.99;82.82;100137.72;5117807;28;20055;-52
2021/12/02 02:39:24;;;;;;;7.57;1.70;;;;;;;5.05;81.25;100140.09;5118577;28;20056;-51
2021/12/02 02:41:57;;;;;;;8.45;1.40;;;;;;;5.06;80.76;100138.31;5118864;28;20052;-51
2021/12/02 02:44:27;;;;;;;6.57;1.05;;;;;;;5.10;80.97;100143.38;5117433;28;20507;-51
2021/12/02 02:46:56;;;;;;;3.60;1.00;;;;;;;5.09;79.23;100131.13;5117352;28;20056;-51
2021/12/02 02:49:24;;;;;;;7.70;1.10;;;;;;;4.91;80.18;100135.47;5118508;28;20052;-52
2021/12/02 02:51:52;;;;;;;5.70;1.10;;;;;;;4.83;80.93;100138.41;5117496;28;20055;-52
2021/12/02 02:54:21;;;;;;;9.90;1.35;;;;;;;4.92;80.67;100144.19;5118673;28;20425;-52
2021/12/02 02:56:57;;;;;;;5.68;1.35;;;;;;;4.96;80.03;100146.63;5117425;28;20052;-52
2021/12/02 02:59:32;;;;;;;8.48;1.38;;;;;;;5.00;80.10;100147.31;5118238;28;20051;-51
2021/12/02 03:02:07;;;;;;;5.35;0.90;;;;;;;5.02;80.38;100162.09;5117749;28;20052;-52
2021/12/02 03:04:42;;;;;;;7.47;1.67;;;;;;;5.00;79.74;100156.06;5118395;28;20055;-51
2021/12/02 03:07:17;;;;;;;11.43;1.17;;;;;;;4.93;78.03;100166.94;5118043;28;20064;-51
2021/12/02 03:09:57;;;;;;;8.73;1.55;;;;;;;4.98;78.64;100170.22;5117254;28;20494;-52
2021/12/02 03:12:31;;;;;;;6.00;1.20;;;;;;;5.04;79.32;100169.91;5116833;28;20056;-52
2021/12/02 03:17:46;;;;;;;8.20;1.30;;;;;;;4.93;79.90;100166.94;5117908;28;20056;-52
2021/12/02 03:20:15;;;;;;;7.53;1.30;;;;;;;4.89;79.86;100170.59;5117258;27;20052;-51
2021/12/02 03:22:44;;;;;;;6.07;1.40;;;;;;;4.92;81.16;100170.47;5116945;28;20056;-51
2021/12/02 03:25:12;;;;;;;8.23;1.38;;;;;;;4.90;82.29;100177.56;5117382;28;20056;-52
2021/12/02 03:27:42;;;;;;;10.88;1.63;;;;;;;4.94;82.87;100177.38;5117942;28;20051;-51
2021/12/02 03:30:11;;;;;;;7.30;1.65;;;;;;;5.01;83.40;100185.84;5116698;28;20059;-52
2021/12/02 03:32:41;;;;;;;10.98;1.90;;;;;;;5.03;83.13;100186.63;5116624;28;20060;-52
2021/12/02 03:35:09;;;;;;;10.82;1.63;;;;;;;5.04;82.49;100188.31;5117909;28;20058;-52
2021/12/02 03:37:38;;;;;;;7.57;1.60;;;;;;;5.03;82.02;100199.78;5117158;28;20059;-52
2021/12/02 03:40:07;;;;;;;16.20;1.40;;;;;;;5.10;80.79;100195.94;5116594;28;20051;-51
2021/12/02 03:42:35;;;;;;;8.00;1.50;;;;;;;4.94;80.76;100215.94;5116838;28;20052;-53
2021/12/02 03:45:06;;;;;;;7.68;1.33;;;;;;;4.74;80.05;100191.38;5116106;28;20052;-52
2021/12/02 03:47:34;;;;;;;6.43;1.50;;;;;;;4.67;80.36;100202.22;5116978;28;20487;-51
2021/12/02 03:50:03;;;;;;;6.90;1.10;;;;;;;4.70;81.07;100202.94;5116658;28;20067;-52
2021/12/02 03:52:31;;;;;;;5.10;1.10;;;;;;;4.65;81.68;100204.91;5116289;28;20499;-51
2021/12/02 03:54:59;;;;;;;8.55;1.48;;;;;;;4.60;83.16;100205.09;5117423;28;20055;-51
2021/12/02 03:57:31;;;;;;;7.57;1.50;;;;;;;4.55;84.25;100203.59;5116761;28;20065;-53
2021/12/02 03:59:59;;;;;;;5.65;1.55;;;;;;;4.57;84.53;100212.25;5116477;28;20518;-51
2021/12/02 04:02:29;;;;;;;5.65;1.65;;;;;;;4.63;82.65;100225.13;5116997;28;20053;-51
2021/12/02 04:04:57;;;;;;;9.60;1.40;;;;;;;4.60;83.13;100222.63;5117322;28;20134;-52
2021/12/02 04:07:26;;;;;;;10.18;2.53;;;;;;;4.47;83.48;100232.78;5115909;28;20059;-51
2021/12/02 04:09:55;;;;;;;10.55;1.90;;;;;;;4.64;82.43;100219.81;5116238;28;20059;-52
2021/12/02 04:12:30;;;;;;;5.38;1.55;;;;;;;4.76;80.71;100223.69;5117109;28;20387;-52
2021/12/02 04:15:02;;;;;;;9.07;1.63;;;;;;;4.78;80.03;100231.53;5116688;28;20074;-52
2021/12/02 04:17:42;;;;;;;9.38;1.20;;;;;;;4.78;80.78;100237.63;5116331;28;20055;-51
2021/12/02 04:20:14;;;;;;;8.15;1.23;;;;;;;4.79;80.86;100227.97;5115985;27;20060;-52
2021/12/02 04:22:44;;;;;;;10.73;1.20;;;;;;;4.96;80.93;100240.38;5115747;28;20499;-52
2021/12/02 04:25:13;;;;;;;10.07;1.65;;;;;;;4.95;81.30;100233.44;5115435;28;20058;-51
2021/12/02 04:27:42;;;;;;;10.77;1.70;;;;;;;5.01;82.03;100241.06;5115513;28;20426;-51
2021/12/02 04:30:12;;;;;;;8.50;1.02;;;;;;;4.89;82.19;100237.16;5115593;28;20055;-51
2021/12/02 04:32:42;;;;;;;14.82;1.40;;;;;;;5.05;80.74;100240.00;5116740;28;20423;-51
2021/12/02 04:35:11;;;;;;;9.52;1.10;;;;;;;4.99;81.42;100237.63;5115202;28;20052;-52
2021/12/02 04:37:40;;;;;;;5.88;0.85;;;;;;;4.93;80.37;100245.78;5115420;28;20100;-54
2021/12/02 04:40:10;;;;;;;11.23;1.63;;;;;;;4.86;81.15;100249.56;5115399;28;20066;-51
2021/12/02 04:42:38;;;;;;;5.57;1.40;;;;;;;4.73;81.17;100239.59;5115132;28;20068;-52
2021/12/02 04:45:07;;;;;;;6.00;1.00;;;;;;;4.64;80.29;100232.13;5115928;28;20051;-52
2021/12/02 04:47:35;;;;;;;10.65;1.75;;;;;;;4.58;80.31;100229.72;5115708;28;20422;-53
2021/12/02 04:50:06;;;;;;;7.30;1.15;;;;;;;4.60;79.72;100231.38;5115229;28;20048;-52
2021/12/02 04:52:35;;;;;;;12.63;1.48;;;;;;;4.44;80.22;100249.53;5116116;28;20402;-52
2021/12/02 04:55:04;;;;;;;8.65;1.65;;;;;;;4.42;80.55;100256.63;5116047;28;20063;-52
2021/12/02 04:57:32;;;;;;;7.55;1.55;;;;;;;4.39;80.92;100255.91;5114982;28;20059;-52
2021/12/02 05:00:00;;;;;;;8.65;2.08;;;;;;;4.39;81.26;100258.53;5115380;28;20384;-52
2021/12/02 05:02:28;;;;;;;4.30;1.10;;;;;;;4.42;81.11;100277.66;5115354;28;20136;-52
2021/12/02 05:04:57;;;;;;;7.75;2.30;;;;;;;4.40;81.46;100278.63;5115432;28;20165;-51
2021/12/02 05:07:27;;;;;;;8.02;1.25;;;;;;;4.34;82.14;100261.34;5114799;28;20051;-51
2021/12/02 05:09:55;;;;;;;9.73;1.17;;;;;;;4.39;82.50;100256.75;5115214;28;20067;-52
2021/12/02 05:12:23;;;;;;;8.50;1.50;;;;;;;4.40;81.87;100258.44;5114886;28;20051;-52
2021/12/02 05:14:51;;;;;;;13.18;1.40;;;;;;;4.30;82.95;100267.63;5114563;28;20052;-51
2021/12/02 05:17:19;;;;;;;14.55;1.40;;;;;;;4.33;83.40;100262.25;5115080;28;20060;-51
2021/12/02 05:19:48;;;;;;;9.02;1.23;;;;;;;4.51;82.34;100270.31;5115035;28;20062;-51
2021/12/02 05:22:16;;;;;;;7.53;1.23;;;;;;;4.56;82.27;100257.84;5115279;28;20062;-52
2021/12/02 05:24:45;;;;;;;8.48;1.15;;;;;;;4.56;82.28;100257.84;5114455;28;20067;-52
2021/12/02 05:27:14;;;;;;;7.68;0.95;;;;;;;4.51;82.48;100254.56;5114610;28;20056;-52
2021/12/02 05:29:43;;;;;;;6.38;1.15;;;;;;;4.47;82.70;100266.94;5114644;28;20056;-51
2021/12/02 05:32:11;;;;;;;5.53;1.33;;;;;;;4.36;83.45;100262.13;5115203;28;20536;-51
2021/12/02 05:34:39;;;;;;;8.20;1.30;;;;;;;4.39;83.58;100258.53;5115540;28;20094;-51
2021/12/02 05:37:07;;;;;;;7.15;1.42;;;;;;;4.38;82.94;100265.53;5114517;28;20067;-52
2021/12/02 05:39:35;;;;;;;9.57;1.45;;;;;;;4.37;83.03;100263.84;5114861;28;20070;-54
2021/12/02 05:42:05;;;;;;;9.38;1.10;;;;;;;4.31;82.58;100274.59;5114523;28;20052;-51
2021/12/02 05:44:33;;;;;;;13.00;2.30;;;;;;;4.34;83.08;100279.72;5115298;28;20056;-51
2021/12/02 05:47:01;;;;;;;6.85;1.10;;;;;;;4.34;83.03;100274.47;5114592;28;20066;-51
2021/12/02 05:49:30;;;;;;;7.18;1.25;;;;;;;4.43;82.75;100276.72;5114242;28;20066;-51
2021/12/02 05:51:58;;;;;;;12.95;1.33;;;;;;;4.46;82.04;100278.38;5114776;28;20052;-52
2021/12/02 05:54:26;;;;;;;5.50;1.67;;;;;;;4.53;82.21;100284.22;5114114;28;20517;-53
2021/12/02 05:56:54;;;;;;;7.72;1.80;;;;;;;4.41;82.44;100283.81;5114323;28;20056;-51
2021/12/02 05:59:24;;;;;;;3.55;1.23;;;;;;;4.31;82.75;100295.59;5114289;28;20059;-51
2021/12/02 06:01:53;;;;;;;11.35;1.55;;;;;;;4.14;83.33;100295.41;5114223;28;20055;-51
2021/12/02 06:04:21;;;;;;;11.85;2.33;;;;;;;4.01;83.87;100298.50;5113965;28;20067;-51
2021/12/02 06:06:50;;;;;;;6.03;1.40;;;;;;;3.82;84.71;100297.50;5115326;28;20136;-52
2021/12/02 06:09:19;;;;;;;6.30;1.30;;;;;;;3.63;85.54;100308.66;5118523;28;20154;-52
2021/12/02 06:11:47;;;;;;;4.72;1.30;;;;;;;3.56;85.94;100299.28;5119304;28;20129;-52
2021/12/02 06:14:17;;;;;;;7.03;1.20;;;;;;;3.34;86.91;100297.44;5119399;28;20051;-52
2021/12/02 06:16:46;;;;;;;8.88;1.33;;;;;;;3.16;87.60;100298.97;5118420;28;20109;-51
2021/12/02 06:19:14;;;;;;;7.20;1.17;;;;;;;3.02;88.46;100314.28;5118343;28;20427;-51
2021/12/02 06:21:42;;;;;;;3.55;1.38;;;;;;;2.89;89.63;100311.25;5118316;28;20063;-51
2021/12/02 06:24:11;;;;;;;12.32;2.00;;;;;;;2.81;90.43;100313.25;5117729;27;20052;-51
2021/12/02 06:26:39;;;;;;;5.03;1.10;;;;;;;2.78;91.23;100319.44;5118254;28;20056;-51
2021/12/02 06:29:07;;;;;;;10.52;3.00;;;;;;;2.88;91.73;100322.63;5117934;27;20058;-52
2021/12/02 06:31:35;;;;;;;4.55;1.83;;;;;;;2.86;91.63;100319.22;5117857;28;20056;-51
2021/12/02 06:34:06;;;;;;;5.90;2.13;;;;;;;2.77;91.75;100311.63;5117502;28;20062;-51
2021/12/02 06:36:36;;;;;;;21.65;5.35;;;;;;;2.60;92.35;100318.28;5117438;28;20062;-51
2021/12/02 06:39:05;;;;;;;23.95;5.80;;;;;;;2.58;92.83;100321.88;5118329;28;20064;-53
2021/12/02 06:41:34;;;;;;;13.32;4.43;;;;;;;2.38;93.50;100317.25;5117956;28;20055;-52
2021/12/02 06:44:02;;;;;;;11.05;3.63;;;;;;;2.30;93.52;100321.88;5117653;28;20112;-52
2021/12/02 06:46:30;;;;;;;8.98;2.33;;;;;;;2.09;94.68;100316.38;5118431;28;20098;-51
2021/12/02 06:48:59;;;;;;;10.43;2.28;;;;;;;1.97;95.82;100320.22;5118162;28;20063;-53
2021/12/02 06:51:29;;;;;;;7.00;1.65;;;;;;;1.87;96.46;100318.78;5117415;28;20514;-53
2021/12/02 06:53:57;;;;;;;10.77;2.03;;;;;;;1.74;98.06;100318.28;5118222;28;20139;-53
2021/12/02 06:56:46;;;;;;;11.60;1.70;;;;;;;1.56;98.14;100316.19;5117353;28;20043;-53
2021/12/02 06:59:14;;;;;;;13.10;2.00;;;;;;;1.51;99.56;100307.63;5117198;28;20070;-51
2021/12/02 07:01:43;;;;;;;4.35;1.48;;;;;;;1.45;100.00;100301.66;5117192;28;20063;-51
2021/12/02 07:04:11;;;;;;;8.40;1.70;;;;;;;1.34;100.00;100314.16;5117823;28;20086;-52
2021/12/02 07:06:43;;;;;;;7.63;2.25;;;;;;;1.33;100.00;100320.31;5117219;28;20066;-51
2021/12/02 07:09:12;;;;;;;14.88;1.77;;;;;;;1.20;100.00;100318.91;5118017;28;20102;-52
2021/12/02 07:11:41;;;;;;;9.70;1.67;;;;;;;1.25;100.00;100335.31;5117344;28;20063;-53
2021/12/02 07:14:12;;;;;;;6.45;1.27;;;;;;;1.32;100.00;100342.09;5117370;28;20418;-52
2021/12/02 07:16:41;;;;;;;10.95;2.00;;;;;;;1.32;100.00;100346.47;5114321;28;20518;-53
2021/12/02 07:19:14;;;;;;;10.65;2.17;;;;;;;1.34;100.00;100336.84;5117057;27;20480;-53
2021/12/02 07:21:45;;;;;;;9.25;1.73;;;;;;;1.36;100.00;100348.97;5116411;28;20541;-51
2021/12/02 07:24:14;;;;;;;7.10;1.88;;;;;;;1.45;100.00;100348.72;5101111;28;20063;-53
2021/12/02 07:27:03;;;;;;;8.95;1.80;;;;;;;1.49;100.00;100347.72;5107805;28;20486;-52
2021/12/02 07:29:32;;;;;;;6.57;1.77;;;;;;;1.57;100.00;100342.28;5116179;28;20052;-53
2021/12/02 07:32:02;;;;;;;5.65;1.35;;;;;;;1.66;100.00;100336.81;5116392;28;20104;-53
2021/12/02 07:34:36;;;;;;;5.20;1.35;;;;;;;1.72;100.00;100335.78;5096013;28;20056;-51
2021/12/02 07:37:06;;;;;;;7.10;1.90;;;;;;;1.79;100.00;100339.94;5096789;28;20408;-51
2021/12/02 07:39:34;;;;;;;4.80;1.58;;;;;;;1.82;100.00;100346.84;5106061;28;20414;-52
2021/12/02 07:42:22;;;;;;;9.75;1.73;;;;;;;2.01;100.00;100341.94;5116204;28;20047;-51
2021/12/02 07:44:50;;;;;;;3.28;1.25;;;;;;;2.29;99.72;100357.66;5115618;28;20055;-52
2021/12/02 07:47:18;;;;;;;7.03;1.52;;;;;;;2.45;99.51;100355.41;5116539;28;20051;-52
2021/12/02 07:49:49;;;;;;;10.30;1.77;;;;;;;2.70;98.35;100360.75;5116228;28;20071;-53
2021/12/02 07:52:20;;;;;;;6.57;1.58;;;;;;;2.96;96.04;100369.56;5116985;28;20057;-51
2021/12/02 07:54:51;;;;;;;4.50;1.60;;;;;;;3.22;93.73;100396.66;5116373;28;20063;-52
2021/12/02 07:57:20;;;;;;;11.55;2.15;;;;;;;3.39;93.47;100398.69;5115808;28;20090;-51
2021/12/02 07:59:49;;;;;;;11.65;3.90;;;;;;;3.61;91.88;100415.41;5116121;28;20056;-53
2021/12/02 08:02:18;;;;;;;6.65;1.55;;;;;;;3.63;92.21;100413.59;5095922;28;20408;-51
2021/12/02 08:04:46;;;;;;;7.00;1.23;;;;;;;3.72;92.15;100402.75;5102592;28;20498;-51
2021/12/02 08:07:15;;;;;;;10.18;1.40;;;;;;;3.77;92.66;100413.09;5116393;28;20051;-51
2021/12/02 08:09:44;;;;;;;4.72;1.23;;;;;;;3.78;93.91;100411.34;5115886;28;20158;-53
2021/12/02 08:12:13;;;;;;;2.75;1.13;;;;;;;3.77;94.20;100394.75;5115380;28;20059;-51
2021/12/02 08:14:41;;;;;;;5.22;1.20;;;;;;;3.77;93.63;100405.25;5116983;28;20059;-53
2021/12/02 08:17:09;;;;;;;8.18;1.42;;;;;;;3.72;94.43;100407.16;5115877;28;20055;-52
2021/12/02 08:19:37;;;;;;;5.28;1.48;;;;;;;3.70;95.00;100411.63;5116480;28;20066;-51
2021/12/02 08:22:06;;;;;;;4.80;1.98;;;;;;;3.74;95.16;100412.38;5115628;28;20052;-53
2021/12/02 08:24:34;;;;;;;11.88;1.55;;;;;;;3.77;94.80;100417.50;5115436;28;20070;-53
2021/12/02 08:27:04;;;;;;;4.82;2.08;;;;;;;3.78;95.82;100422.69;5115982;27;20060;-51
2021/12/02 08:29:33;;;;;;;4.93;1.63;;;;;;;3.83;96.19;100438.25;5115943;27;20066;-53
2021/12/02 08:32:02;;;;;;;6.95;1.60;;;;;;;3.89;96.43;100440.69;5116124;28;20059;-53
2021/12/02 08:34:31;;;;;;;3.60;1.40;;;;;;;3.95;96.83;100439.59;5116639;28;20051;-51
2021/12/02 08:36:59;;;;;;;11.40;2.00;;;;;;;4.00;97.02;100427.16;5115937;28;20394;-52
2021/12/02 08:39:28;;;;;;;18.63;2.28;;;;;;;4.05;96.52;100420.84;5116608;28;20066;-50
2021/12/02 08:41:57;;;;;;;7.43;2.25;;;;;;;4.10;96.71;100415.41;5115369;28;20522;-51
2021/12/02 08:44:30;;;;;;;9.27;1.65;;;;;;;4.21;95.87;100405.38;5116029;27;20062;-51
2021/12/02 08:46:58;;;;;;;12.15;2.15;;;;;;;4.23;95.52;100413.19;5114920;28;20059;-52
2021/12/02 08:49:26;;;;;;;7.15;1.65;;;;;;;4.26;95.59;100410.47;5115720;28;20491;-51
2021/12/02 08:51:55;;;;;;;6.68;2.00;;;;;;;4.22;95.46;100417.59;5115178;28;20059;-52
2021/12/02 08:54:23;;;;;;;14.68;2.60;;;;;;;4.21;95.64;100420.28;5115214;28;20055;-53
2021/12/02 08:56:51;;;;;;;7.03;1.88;;;;;;;4.20;96.52;100439.56;5115425;28;20056;-53
2021/12/02 08:59:19;;;;;;;8.23;1.88;;;;;;;4.12;96.15;100436.34;5115043;28;20066;-52
2021/12/02 09:01:49;;;;;;;10.02;2.28;;;;;;;4.02;97.57;100441.09;5116093;28;20086;-53
2021/12/02 09:04:17;;;;;;;5.07;1.83;;;;;;;3.93;98.82;100444.91;5115631;28;20086;-53
2021/12/02 09:06:45;;;;;;;7.60;1.58;;;;;;;3.90;99.38;100427.50;5114986;27;20063;-53
2021/12/02 09:09:14;;;;;;;5.40;2.15;;;;;;;3.88;99.81;100431.09;5115386;28;20071;-52
2021/12/02 09:11:42;;;;;;;12.10;2.17;;;;;;;3.82;100.00;100439.19;5115152;28;20510;-51
2021/12/02 09:14:10;;;;;;;18.15;2.78;;;;;;;3.87;100.00;100445.13;5114591;28;20055;-52
2021/12/02 09:16:38;;;;;;;7.28;1.92;;;;;;;3.88;100.00;100455.59;5114805;28;20052;-53
2021/12/02 09:19:08;;;;;;;9.25;1.73;;;;;;;3.97;100.00;100449.13;5114754;28;20552;-52
2021/12/02 09:21:36;;;;;;;5.82;2.85;;;;;;;3.94;100.00;100423.00;5114688;28;20059;-53
2021/12/02 09:24:04;;;;;;;3.42;1.38;;;;;;;4.01;100.00;100428.88;5115900;28;20059;-53
2021/12/02 09:26:33;;;;;;;2.97;1.17;;;;;;;4.09;100.00;100453.09;5115159;28;20059;-53
2021/12/02 09:29:01;;;;;;;2.35;0.90;;;;;;;4.22;100.00;100445.59;5115477;28;20062;-53
2021/12/02 09:31:29;;;;;;;7.32;1.40;;;;;;;4.26;100.00;100449.84;5114875;28;20498;-53
2021/12/02 09:33:57;;;;;;;5.05;1.67;;;;;;;4.26;100.00;100444.59;5115466;28;20176;-52
2021/12/02 09:36:27;;;;;;;8.60;1.48;;;;;;;4.34;100.00;100452.16;5114866;28;20052;-51
2021/12/02 09:38:55;;;;;;;5.88;1.27;;;;;;;4.50;100.00;100447.22;5114408;28;20055;-52
2021/12/02 09:41:23;;;;;;;6.00;1.20;;;;;;;4.66;100.00;100443.09;5114526;28;20510;-52
2021/12/02 09:43:52;;;;;;;4.32;1.88;;;;;;;4.91;100.00;100436.88;5118556;28;20059;-53
2021/12/02 09:46:21;;;;;;;6.22;1.58;;;;;;;5.54;99.22;100432.50;5119006;28;20071;-53
2021/12/02 09:48:49;;;;;;;2.50;1.05;;;;;;;6.79;98.52;100432.25;5118642;28;20060;-53
2021/12/02 09:51:21;;;;;;;4.15;1.48;;;;;;;8.25;87.01;100439.84;5119508;28;20063;-53
2021/12/02 09:54:14;;;;;;;3.20;1.27;;;;;;;8.34;79.48;100457.88;5118608;28;20059;-52
2021/12/02 09:56:45;;;;;;;6.25;1.30;;;;;;;7.54;81.93;100438.25;5118294;28;20673;-53
2021/12/02 09:59:24;;;;;;;9.40;1.40;;;;;;;7.00;85.30;100434.78;5119081;28;20065;-52
2021/12/02 10:01:56;;;;;;;4.88;1.00;;;;;;;6.50;88.42;100429.16;5119706;28;20051;-52
2021/12/02 10:04:26;;;;;;;8.30;1.35;;;;;;;6.63;91.90;100428.63;5118153;28;20052;-50
2021/12/02 10:07:06;;;;;;;3.90;1.30;;;;;;;7.17;87.67;100421.59;5118643;28;20055;-53
2021/12/02 10:09:41;;;;;;;6.78;1.35;;;;;;;7.10;85.78;100432.53;5119482;28;20406;-51
2021/12/02 10:12:17;;;;;;;4.07;1.40;;;;;;;6.88;86.39;100434.44;5119222;28;20069;-50
2021/12/02 10:14:50;;;;;;;7.75;1.98;;;;;;;7.04;87.25;100428.41;5118965;28;20056;-50
2021/12/02 10:17:22;;;;;;;4.07;1.65;;;;;;;7.18;87.04;100446.22;5118761;28;20051;-51
2021/12/02 10:20:02;;;;;;;;;;;;;;;7.09;86.31;100447.50;5119276;28;20494;-51
2021/12/02 10:22:30;;;;;;;3.42;1.30;;;;;;;6.89;87.23;100432.63;5117879;28;20393;-51
2021/12/02 10:24:59;;;;;;;3.78;1.20;;;;;;;6.83;87.79;100425.03;5118483;28;20063;-53
2021/12/02 10:27:27;;;;;;;5.32;1.17;;;;;;;6.81;88.25;100427.75;5118252;28;20537;-52
2021/12/02 10:29:56;;;;;;;6.43;1.25;;;;;;;7.28;89.97;100428.13;5117847;28;20058;-52
2021/12/02 10:32:26;;;;;;;7.28;1.38;;;;;;;9.43;86.76;100413.91;5118228;28;20066;-52
2021/12/02 10:34:56;;;;;;;6.63;1.48;;;;;;;11.33;72.82;100416.19;5117616;28;20063;-51
2021/12/02 10:37:26;;;;;;;4.40;1.65;;;;;;;11.41;68.88;100431.59;5118165;28;20051;-52
2021/12/02 10:39:56;;;;;;;8.68;1.42;;;;;;;11.35;68.76;100429.38;5117818;28;20063;-52
2021/12/02 10:42:26;;;;;;;13.50;2.17;;;;;;;10.88;68.68;100436.84;5118878;28;20055;-51
2021/12/02 10:44:58;;;;;;;20.15;2.95;;;;;;;10.78;69.71;100419.81;5118540;28;20082;-52
2021/12/02 10:47:26;;;;;;;12.77;1.45;;;;;;;10.55;70.49;100426.59;5117735;28;20056;-51
2021/12/02 10:49:56;;;;;;;10.23;2.17;;;;;;;11.03;70.25;100407.59;5117809;28;20131;-51
2021/12/02 10:52:26;;;;;;;4.15;1.33;;;;;;;13.28;63.32;100419.34;5117139;28;20047;-51
2021/12/02 10:55:00;;;;;;;6.70;2.33;;;;;;;15.95;55.76;100408.72;5117163;28;20051;-51
2021/12/02 10:57:31;;;;;;;8.30;1.50;;;;;;;18.74;48.32;100410.00;5117430;28;20129;-52
2021/12/02 11:00:00;;;;;;;5.30;1.87;;;;;;;21.33;38.82;100399.47;5117170;28;20060;-52
2021/12/02 11:02:30;;;;;;;5.65;1.55;;;;;;;20.78;39.54;100396.38;5117660;27;20284;-52
2021/12/02 11:05:01;;;;;;;7.68;1.35;;;;;;;19.86;40.44;100392.56;5117013;28;20059;-52
2021/12/02 11:07:31;;;;;;;9.82;1.98;;;;;;;19.84;40.41;100394.56;5117270;28;20051;-51
2021/12/02 11:10:01;;;;;;;5.68;1.73;;;;;;;18.04;43.25;100391.69;5117521;28;20062;-53
2021/12/02 11:12:32;;;;;;;5.43;1.38;;;;;;;15.75;47.31;100386.34;5117405;28;20063;-52
2021/12/02 11:15:09;;;;;;;6.88;1.80;;;;;;;13.94;52.79;100390.34;5116866;27;20525;-51
2021/12/02 11:17:47;;;;;;;9.35;1.80;;;;;;;12.64;56.84;100408.94;5117065;28;20051;-51
2021/12/02 11:20:22;;;;;;;6.57;1.17;;;;;;;10.76;66.32;100411.94;5117892;27;20055;-51
2021/12/02 11:22:54;;;;;;;6.30;1.25;;;;;;;9.60;72.05;100415.53;5116734;28;20051;-53
2021/12/02 11:25:23;;;;;;;6.03;1.20;;;;;;;8.88;74.80;100402.06;5116987;28;20058;-51
2021/12/02 11:27:53;;;;;;;7.88;1.23;;;;;;;8.41;77.51;100394.94;5117132;28;20052;-51
2021/12/02 11:30:22;;;;;;;6.28;1.50;;;;;;;8.23;80.11;100399.44;5116228;28;20434;-52
2021/12/02 11:32:53;;;;;;;5.28;1.15;;;;;;;8.06;81.72;100399.50;5116230;28;20070;-51
2021/12/02 11:35:25;;;;;;;6.07;1.65;;;;;;;8.02;82.24;100390.91;5115892;28;20062;-53
2021/12/02 11:37:57;;;;;;;6.78;1.00;;;;;;;8.11;83.05;100390.38;5112736;28;20131;-53
2021/12/02 11:40:27;;;;;;;6.68;1.98;;;;;;;8.44;83.33;100391.31;5097052;28;20060;-51
2021/12/02 11:42:57;;;;;;;6.53;1.15;;;;;;;8.85;81.66;100391.63;5116283;28;20395;-51
2021/12/02 11:45:27;;;;;;;8.00;1.25;;;;;;;11.53;78.11;100380.31;5116168;28;20422;-50
2021/12/02 11:47:56;;;;;;;8.30;1.40;;;;;;;15.61;60.15;100376.84;5115959;28;20048;-52
2021/12/02 11:50:28;;;;;;;7.28;1.05;;;;;;;18.22;48.97;100375.63;5114959;28;20059;-51